KASL

Details ICAO KASL
Name HARRISON CO
Region United States
Timezone America/Chicago (UTC-6.0)
Plans Departing 1
Arriving 1
Stats Elevation 357 ft / 109 m (AMSL)
Location 32.520730° -94.307780°
Runways 2
Magnetic Variation 1.744° E
Sunrise 2017-12-11 13:10:31 UTC / 2017-12-11 07:10:31 Local
Sunset 2017-12-11 23:13:36 UTC / 2017-12-11 17:13:36 Local
Advertisement - Login to hide

Runways

ID Width Length Bearing (true) Bearing (mag) Surface Threshold Offset Overrun Length
01 60 ft / 18 m 3,306 ft / 1,008 m 21.63° 19.89° Asphalt 0 ft / 0 m 0 ft / 0 m
15 100 ft / 30 m 5,011 ft / 1,527 m 156.80° 155.06° Asphalt 0 ft / 0 m 0 ft / 0 m
19 60 ft / 18 m 3,306 ft / 1,008 m 201.63° 199.89° Asphalt 0 ft / 0 m 0 ft / 0 m
33 100 ft / 30 m 5,011 ft / 1,527 m 336.81° 335.07° Asphalt 0 ft / 0 m 0 ft / 0 m

Map

Weather


0- 5 10 15 20 25 30 35+ Temperature / ° C

Clouds and Precipitation
Forecast for 2017-12-11 18:00 UTC. Updated 33 minutes ago

Ground ~20,000 ft ~40,000 ft Winds

METAR

KASL 111735Z AUTO 21006KT 10SM CLR 18/M01 A3021 RMK AO1 T01831011

TAF

Not found

Frequencies

Recorded 118.67 MHz AWOS 3
Approach 119.90 MHz SHREVEPORT APP/DEP
Unicom 122.80 MHz CTAF/UNICOM
Warning: Do not use this data for real-world aviation or navigation. No guarantee of current accuracy is given.